Search for airport 
image banner adimage banner adimage banner ad
image banner ad

PN00 - Crosswinds Airfield

Located in Sassamansville, United States

ICAO - PN00, IATA -

Data provided by Airmate  

General information

Coordinates: N40°20'35" W75°34'22"
Elevation is 300 feet MSL.
Magnetic variation is -12° East
View others Airports in Pennsylvania

Operational data

Special qualification required
Current time UTC:
Current local time:
Weather at : KPTW - Heritage Field ( 12 km )
METAR: KPTW 182254Z AUTO VRB05KT 10SM CLR 25/05 A3026 RMK AO2 SLP244 T02500050
View NOTAMs / SUP AIP / TFR affecting this airport [VIEW]
Communications frequencies: [VIEW]

Runways:

RWY identifierQFULength (ft)Width (ft)SurfaceLDA (ft)
022550250GRASS
202550250GRASS

Airport contact information

Address: Sassamansville United States

Satellite view of PN00